Berger, MO (63014)

08:36 PM CDT die 20o September, anno 2017 (GMT -0500)
St. George | | Change Station

Elev 572 ft 38.70 °N, 91.44 °W | Updated 15 seconds ago

Serena
Serena
84.4 °F
Feels Like 84 °F
N
3.1
Ventus Variabilis Ventus from Auster
Gusts 3.8 mph

Hodie
High -- | Low -- °F
--% Chance of Precip.
Yesterday
High -- | Low -- °F
Precip. -- in
Pressio 29.87 in
Visibilitas 10.0 milia passuum
Clouds Serena
Index Caloris 84 °F
Frigus in quo Ros apparet 58 °F
Umor 40%
Rainfall 0.00 in
Snow Depth Not available.
6:51 AM 7:05 PM
New, 1% visible
METAR KFYG 210115Z AUTO 00000KT 10SM CLR 27/22 A2987 RMK AO2
Pressio 29.87 in
Visibilitas 10.0 milia passuum
Clouds Serena
Index Caloris 84 °F
Frigus in quo Ros apparet 58 °F
Umor 40%
Rainfall 0.00 in
Snow Depth Not available.
6:51 AM 7:05 PM
New, 1% visible
METAR KFYG 210115Z AUTO 00000KT 10SM CLR 27/22 A2987 RMK AO2

Get Severe Weather Alerts

Thanks for signing up!

Be on the lookout for a verification email in your inbox.

You'll start receiving the daily forecast at 6 AM.

×

10-Day Weather Forecast

Almanac

Astronomy

Sep. 20, 2017 Rise Set
Actual Time
Civil Twilight
Nautical Twilight
Astronomical Twilight
Moon
Length Of Visible Light
Length of Day
Tomorrow will be .
, % of the Moon is Illuminated

Today's Extremes

State Highs State Lows

Community

WunderPhotos

Category 6

Welcome to Category 6. This is the collective home for Weather Underground's featured writeups by Dr. Jeff Masters (right), Bob Henson (left), Chris Burt, and other regular contributors.

Nearby

Air Quality

  Air Quality AQ Index Pollutant
Not available.

Snow Depth

Station Depth Elevation

Earthquake Activity

City Distance Mag. Time & Date
Minimum magnitude displayed is 2.5.

Coastal Water Temperatures

Locus Calor

Stations

Nearby Weather Stations

Station Location Temp Frigus Venti Frigus in quo Ros apparet Umor Ventus Precip. Elev Renovata Type
                   

Watches & Warnings

There are currently no watches in effect.